sensor_id;sensor_type;location;lat;lon;timestamp;P1;durP1;ratioP1;P2;durP2;ratioP2
18166;SDS011;9208;42.688;23.404;2022-10-14T00:01:12;4.60;;;3.10;;
18166;SDS011;9208;42.688;23.404;2022-10-14T00:03:40;3.70;;;2.57;;
18166;SDS011;9208;42.688;23.404;2022-10-14T00:06:08;3.20;;;2.43;;
18166;SDS011;9208;42.688;23.404;2022-10-14T00:08:38;3.40;;;2.20;;
18166;SDS011;9208;42.688;23.404;2022-10-14T00:11:11;2.50;;;2.20;;
18166;SDS011;9208;42.688;23.404;2022-10-14T00:13:38;4.50;;;2.50;;
18166;SDS011;9208;42.688;23.404;2022-10-14T00:16:05;3.03;;;2.17;;
18166;SDS011;9208;42.688;23.404;2022-10-14T00:18:31;3.70;;;2.40;;
18166;SDS011;9208;42.688;23.404;2022-10-14T00:20:58;4.17;;;2.27;;
18166;SDS011;9208;42.688;23.404;2022-10-14T00:23:26;4.57;;;2.33;;
18166;SDS011;9208;42.688;23.404;2022-10-14T00:25:52;5.03;;;2.27;;
18166;SDS011;9208;42.688;23.404;2022-10-14T00:28:17;3.07;;;2.23;;
18166;SDS011;9208;42.688;23.404;2022-10-14T00:30:56;4.73;;;2.33;;
18166;SDS011;9208;42.688;23.404;2022-10-14T00:33:25;4.77;;;2.10;;
18166;SDS011;9208;42.688;23.404;2022-10-14T00:35:59;4.00;;;2.57;;
18166;SDS011;9208;42.688;23.404;2022-10-14T00:38:26;3.23;;;2.33;;
18166;SDS011;9208;42.688;23.404;2022-10-14T00:40:52;4.60;;;2.83;;
18166;SDS011;9208;42.688;23.404;2022-10-14T00:43:20;2.20;;;1.90;;
18166;SDS011;9208;42.688;23.404;2022-10-14T00:45:48;2.53;;;2.00;;
18166;SDS011;9208;42.688;23.404;2022-10-14T00:48:13;2.30;;;2.10;;
18166;SDS011;9208;42.688;23.404;2022-10-14T00:50:42;3.03;;;2.10;;
18166;SDS011;9208;42.688;23.404;2022-10-14T00:53:10;4.00;;;2.00;;
18166;SDS011;9208;42.688;23.404;2022-10-14T00:55:38;2.47;;;2.20;;
18166;SDS011;9208;42.688;23.404;2022-10-14T00:58:07;2.30;;;1.80;;
18166;SDS011;9208;42.688;23.404;2022-10-14T01:00:33;1.87;;;1.77;;
18166;SDS011;9208;42.688;23.404;2022-10-14T01:02:59;2.00;;;1.90;;
18166;SDS011;9208;42.688;23.404;2022-10-14T01:05:31;4.03;;;2.00;;
18166;SDS011;9208;42.688;23.404;2022-10-14T01:08:13;2.70;;;1.70;;
18166;SDS011;9208;42.688;23.404;2022-10-14T01:13:39;2.20;;;1.83;;
18166;SDS011;9208;42.688;23.404;2022-10-14T01:32:22;2.57;;;1.43;;
18166;SDS011;9208;42.688;23.404;2022-10-14T01:37:38;3.07;;;1.57;;
18166;SDS011;9208;42.688;23.404;2022-10-14T01:43:09;1.23;;;1.13;;
18166;SDS011;9208;42.688;23.404;2022-10-14T01:45:37;3.97;;;1.33;;
18166;SDS011;9208;42.688;23.404;2022-10-14T01:48:07;2.63;;;1.57;;
18166;SDS011;9208;42.688;23.404;2022-10-14T01:50:35;2.87;;;1.33;;
18166;SDS011;9208;42.688;23.404;2022-10-14T01:53:05;1.73;;;1.40;;
18166;SDS011;9208;42.688;23.404;2022-10-14T01:55:37;1.70;;;1.20;;
18166;SDS011;9208;42.688;23.404;2022-10-14T01:58:06;2.90;;;1.50;;
18166;SDS011;9208;42.688;23.404;2022-10-14T02:00:34;1.40;;;1.30;;
18166;SDS011;9208;42.688;23.404;2022-10-14T02:03:00;1.00;;;1.00;;
18166;SDS011;9208;42.688;23.404;2022-10-14T02:05:27;3.00;;;1.50;;
18166;SDS011;9208;42.688;23.404;2022-10-14T02:08:05;1.57;;;1.40;;
18166;SDS011;9208;42.688;23.404;2022-10-14T02:10:42;1.83;;;1.20;;
18166;SDS011;9208;42.688;23.404;2022-10-14T02:18:45;2.90;;;1.20;;
18166;SDS011;9208;42.688;23.404;2022-10-14T02:21:30;1.20;;;1.10;;
18166;SDS011;9208;42.688;23.404;2022-10-14T02:24:03;2.57;;;1.30;;
18166;SDS011;9208;42.688;23.404;2022-10-14T02:26:43;1.70;;;1.17;;
18166;SDS011;9208;42.688;23.404;2022-10-14T02:29:11;2.03;;;1.60;;
18166;SDS011;9208;42.688;23.404;2022-10-14T02:31:37;2.00;;;1.40;;
18166;SDS011;9208;42.688;23.404;2022-10-14T02:34:07;2.33;;;1.57;;
18166;SDS011;9208;42.688;23.404;2022-10-14T02:36:36;1.40;;;1.30;;
18166;SDS011;9208;42.688;23.404;2022-10-14T02:39:06;1.50;;;1.40;;
18166;SDS011;9208;42.688;23.404;2022-10-14T02:41:36;1.53;;;1.20;;
18166;SDS011;9208;42.688;23.404;2022-10-14T02:44:05;1.40;;;1.30;;
18166;SDS011;9208;42.688;23.404;2022-10-14T02:46:31;3.07;;;1.10;;
18166;SDS011;9208;42.688;23.404;2022-10-14T02:48:58;1.93;;;1.30;;
18166;SDS011;9208;42.688;23.404;2022-10-14T02:51:24;2.77;;;1.20;;
18166;SDS011;9208;42.688;23.404;2022-10-14T02:53:50;1.80;;;1.07;;
18166;SDS011;9208;42.688;23.404;2022-10-14T02:56:15;2.83;;;1.13;;
18166;SDS011;9208;42.688;23.404;2022-10-14T02:58:41;2.47;;;1.10;;
18166;SDS011;9208;42.688;23.404;2022-10-14T03:01:07;2.00;;;1.20;;
18166;SDS011;9208;42.688;23.404;2022-10-14T03:03:32;1.67;;;1.20;;
18166;SDS011;9208;42.688;23.404;2022-10-14T03:05:58;1.23;;;1.00;;
18166;SDS011;9208;42.688;23.404;2022-10-14T03:08:24;1.93;;;1.07;;
18166;SDS011;9208;42.688;23.404;2022-10-14T03:10:49;3.03;;;1.10;;
18166;SDS011;9208;42.688;23.404;2022-10-14T03:13:15;1.40;;;1.27;;
18166;SDS011;9208;42.688;23.404;2022-10-14T03:15:41;2.57;;;1.27;;
18166;SDS011;9208;42.688;23.404;2022-10-14T03:18:08;1.97;;;1.47;;
18166;SDS011;9208;42.688;23.404;2022-10-14T03:20:34;1.23;;;1.20;;
18166;SDS011;9208;42.688;23.404;2022-10-14T03:22:59;1.97;;;1.40;;
18166;SDS011;9208;42.688;23.404;2022-10-14T03:25:25;1.83;;;1.20;;
18166;SDS011;9208;42.688;23.404;2022-10-14T03:27:50;1.33;;;1.20;;
18166;SDS011;9208;42.688;23.404;2022-10-14T03:30:16;2.73;;;1.20;;
18166;SDS011;9208;42.688;23.404;2022-10-14T03:32:41;3.70;;;1.40;;
18166;SDS011;9208;42.688;23.404;2022-10-14T03:35:07;1.43;;;1.30;;
18166;SDS011;9208;42.688;23.404;2022-10-14T03:37:33;1.40;;;1.30;;
18166;SDS011;9208;42.688;23.404;2022-10-14T03:39:58;1.60;;;1.10;;
18166;SDS011;9208;42.688;23.404;2022-10-14T03:42:23;1.10;;;1.10;;
18166;SDS011;9208;42.688;23.404;2022-10-14T03:44:49;3.87;;;1.20;;
18166;SDS011;9208;42.688;23.404;2022-10-14T03:47:15;2.13;;;1.10;;
18166;SDS011;9208;42.688;23.404;2022-10-14T03:49:40;1.60;;;1.20;;
18166;SDS011;9208;42.688;23.404;2022-10-14T03:52:05;1.30;;;1.20;;
18166;SDS011;9208;42.688;23.404;2022-10-14T03:54:31;1.10;;;1.00;;
18166;SDS011;9208;42.688;23.404;2022-10-14T03:56:56;1.40;;;1.30;;
18166;SDS011;9208;42.688;23.404;2022-10-14T03:59:22;1.17;;;1.07;;
18166;SDS011;9208;42.688;23.404;2022-10-14T04:01:47;1.10;;;1.03;;
18166;SDS011;9208;42.688;23.404;2022-10-14T04:04:13;1.27;;;1.20;;
18166;SDS011;9208;42.688;23.404;2022-10-14T04:06:41;1.47;;;1.33;;
18166;SDS011;9208;42.688;23.404;2022-10-14T04:09:07;1.27;;;1.10;;
18166;SDS011;9208;42.688;23.404;2022-10-14T04:11:32;1.30;;;1.20;;
18166;SDS011;9208;42.688;23.404;2022-10-14T04:13:58;2.53;;;1.27;;
18166;SDS011;9208;42.688;23.404;2022-10-14T04:16:25;1.13;;;1.03;;
18166;SDS011;9208;42.688;23.404;2022-10-14T04:18:51;1.70;;;1.60;;
18166;SDS011;9208;42.688;23.404;2022-10-14T04:21:17;1.37;;;1.27;;
18166;SDS011;9208;42.688;23.404;2022-10-14T04:23:43;1.20;;;1.10;;
18166;SDS011;9208;42.688;23.404;2022-10-14T04:26:09;1.40;;;1.40;;
18166;SDS011;9208;42.688;23.404;2022-10-14T04:28:35;3.43;;;1.67;;
18166;SDS011;9208;42.688;23.404;2022-10-14T04:31:01;1.47;;;1.40;;
18166;SDS011;9208;42.688;23.404;2022-10-14T04:33:27;1.50;;;1.40;;
18166;SDS011;9208;42.688;23.404;2022-10-14T04:35:59;3.53;;;1.47;;
18166;SDS011;9208;42.688;23.404;2022-10-14T04:38:27;1.67;;;1.57;;
18166;SDS011;9208;42.688;23.404;2022-10-14T04:40:53;1.83;;;1.73;;
18166;SDS011;9208;42.688;23.404;2022-10-14T04:43:22;2.00;;;1.90;;
18166;SDS011;9208;42.688;23.404;2022-10-14T04:45:50;1.97;;;1.77;;
18166;SDS011;9208;42.688;23.404;2022-10-14T04:48:16;1.83;;;1.50;;
18166;SDS011;9208;42.688;23.404;2022-10-14T04:50:42;3.47;;;1.83;;
18166;SDS011;9208;42.688;23.404;2022-10-14T04:53:08;3.00;;;2.00;;
18166;SDS011;9208;42.688;23.404;2022-10-14T04:55:34;7.00;;;2.50;;
18166;SDS011;9208;42.688;23.404;2022-10-14T04:57:59;3.30;;;2.10;;
18166;SDS011;9208;42.688;23.404;2022-10-14T05:00:25;2.20;;;1.93;;
18166;SDS011;9208;42.688;23.404;2022-10-14T05:02:53;5.20;;;2.20;;
18166;SDS011;9208;42.688;23.404;2022-10-14T05:05:18;2.00;;;1.90;;
18166;SDS011;9208;42.688;23.404;2022-10-14T05:07:44;2.83;;;2.00;;
18166;SDS011;9208;42.688;23.404;2022-10-14T05:10:09;1.77;;;1.67;;
18166;SDS011;9208;42.688;23.404;2022-10-14T05:12:36;2.63;;;1.80;;
18166;SDS011;9208;42.688;23.404;2022-10-14T05:15:03;2.57;;;1.80;;
18166;SDS011;9208;42.688;23.404;2022-10-14T05:17:29;1.93;;;1.83;;
18166;SDS011;9208;42.688;23.404;2022-10-14T05:19:56;4.20;;;2.20;;
18166;SDS011;9208;42.688;23.404;2022-10-14T05:22:22;3.50;;;2.07;;
18166;SDS011;9208;42.688;23.404;2022-10-14T05:24:48;1.83;;;1.73;;
18166;SDS011;9208;42.688;23.404;2022-10-14T05:27:14;2.77;;;1.97;;
18166;SDS011;9208;42.688;23.404;2022-10-14T05:29:39;2.17;;;2.00;;
18166;SDS011;9208;42.688;23.404;2022-10-14T05:32:05;1.73;;;1.63;;
18166;SDS011;9208;42.688;23.404;2022-10-14T05:34:31;2.33;;;1.93;;
18166;SDS011;9208;42.688;23.404;2022-10-14T05:36:56;2.37;;;1.90;;
18166;SDS011;9208;42.688;23.404;2022-10-14T05:39:22;2.00;;;1.53;;
18166;SDS011;9208;42.688;23.404;2022-10-14T05:41:47;2.27;;;1.80;;
18166;SDS011;9208;42.688;23.404;2022-10-14T05:44:13;4.70;;;2.13;;
18166;SDS011;9208;42.688;23.404;2022-10-14T05:46:38;2.30;;;2.13;;
18166;SDS011;9208;42.688;23.404;2022-10-14T05:49:04;7.00;;;2.47;;
18166;SDS011;9208;42.688;23.404;2022-10-14T05:51:33;3.53;;;1.87;;
18166;SDS011;9208;42.688;23.404;2022-10-14T05:53:58;1.70;;;1.60;;
18166;SDS011;9208;42.688;23.404;2022-10-14T05:56:27;1.67;;;1.47;;
18166;SDS011;9208;42.688;23.404;2022-10-14T05:58:52;1.73;;;1.60;;
18166;SDS011;9208;42.688;23.404;2022-10-14T06:01:18;2.23;;;2.00;;
18166;SDS011;9208;42.688;23.404;2022-10-14T06:03:48;2.00;;;1.80;;
18166;SDS011;9208;42.688;23.404;2022-10-14T06:06:15;1.80;;;1.53;;
18166;SDS011;9208;42.688;23.404;2022-10-14T06:08:41;4.80;;;1.30;;
18166;SDS011;9208;42.688;23.404;2022-10-14T06:11:10;2.93;;;1.77;;
18166;SDS011;9208;42.688;23.404;2022-10-14T06:13:36;2.23;;;1.70;;
18166;SDS011;9208;42.688;23.404;2022-10-14T06:16:03;3.53;;;1.90;;
18166;SDS011;9208;42.688;23.404;2022-10-14T06:18:30;3.80;;;1.70;;
18166;SDS011;9208;42.688;23.404;2022-10-14T06:20:57;2.00;;;1.77;;
18166;SDS011;9208;42.688;23.404;2022-10-14T06:23:23;1.90;;;1.67;;
18166;SDS011;9208;42.688;23.404;2022-10-14T06:25:48;2.83;;;1.57;;
18166;SDS011;9208;42.688;23.404;2022-10-14T06:28:14;2.90;;;1.63;;
18166;SDS011;9208;42.688;23.404;2022-10-14T06:30:40;4.53;;;1.80;;
18166;SDS011;9208;42.688;23.404;2022-10-14T06:33:06;2.00;;;1.80;;
18166;SDS011;9208;42.688;23.404;2022-10-14T06:35:32;1.70;;;1.47;;
18166;SDS011;9208;42.688;23.404;2022-10-14T06:37:59;1.80;;;1.70;;
18166;SDS011;9208;42.688;23.404;2022-10-14T06:40:28;1.90;;;1.70;;
18166;SDS011;9208;42.688;23.404;2022-10-14T06:42:54;3.20;;;2.03;;
18166;SDS011;9208;42.688;23.404;2022-10-14T06:45:20;2.27;;;1.90;;
18166;SDS011;9208;42.688;23.404;2022-10-14T06:47:45;2.47;;;2.27;;
18166;SDS011;9208;42.688;23.404;2022-10-14T06:50:11;2.40;;;2.20;;
18166;SDS011;9208;42.688;23.404;2022-10-14T06:52:37;7.47;;;2.40;;
18166;SDS011;9208;42.688;23.404;2022-10-14T06:55:03;3.53;;;2.73;;
18166;SDS011;9208;42.688;23.404;2022-10-14T06:57:30;3.43;;;2.83;;
18166;SDS011;9208;42.688;23.404;2022-10-14T06:59:55;3.20;;;2.90;;
18166;SDS011;9208;42.688;23.404;2022-10-14T07:02:21;4.37;;;3.17;;
18166;SDS011;9208;42.688;23.404;2022-10-14T07:04:51;3.70;;;3.20;;
18166;SDS011;9208;42.688;23.404;2022-10-14T07:07:17;5.70;;;3.17;;
18166;SDS011;9208;42.688;23.404;2022-10-14T07:09:45;3.50;;;3.20;;
18166;SDS011;9208;42.688;23.404;2022-10-14T07:12:11;3.37;;;2.97;;
18166;SDS011;9208;42.688;23.404;2022-10-14T07:14:37;5.30;;;3.07;;
18166;SDS011;9208;42.688;23.404;2022-10-14T07:17:03;5.27;;;3.40;;
18166;SDS011;9208;42.688;23.404;2022-10-14T07:19:29;3.73;;;3.40;;
18166;SDS011;9208;42.688;23.404;2022-10-14T07:21:55;5.33;;;3.30;;
18166;SDS011;9208;42.688;23.404;2022-10-14T07:24:22;4.47;;;3.33;;
18166;SDS011;9208;42.688;23.404;2022-10-14T07:26:48;5.53;;;3.20;;
18166;SDS011;9208;42.688;23.404;2022-10-14T07:29:14;3.40;;;2.83;;
18166;SDS011;9208;42.688;23.404;2022-10-14T07:31:40;4.10;;;3.10;;
18166;SDS011;9208;42.688;23.404;2022-10-14T07:34:09;4.50;;;3.00;;
18166;SDS011;9208;42.688;23.404;2022-10-14T07:36:36;3.30;;;3.10;;
18166;SDS011;9208;42.688;23.404;2022-10-14T07:39:02;3.60;;;3.30;;
18166;SDS011;9208;42.688;23.404;2022-10-14T07:41:30;3.17;;;2.97;;
18166;SDS011;9208;42.688;23.404;2022-10-14T07:43:58;3.20;;;3.00;;
18166;SDS011;9208;42.688;23.404;2022-10-14T07:46:27;3.37;;;3.00;;
18166;SDS011;9208;42.688;23.404;2022-10-14T07:48:57;3.20;;;2.90;;
18166;SDS011;9208;42.688;23.404;2022-10-14T07:51:25;5.30;;;3.30;;
18166;SDS011;9208;42.688;23.404;2022-10-14T07:53:53;4.90;;;2.83;;
18166;SDS011;9208;42.688;23.404;2022-10-14T07:56:21;3.33;;;3.03;;
18166;SDS011;9208;42.688;23.404;2022-10-14T07:58:47;4.47;;;3.10;;
18166;SDS011;9208;42.688;23.404;2022-10-14T08:01:14;3.33;;;2.90;;
18166;SDS011;9208;42.688;23.404;2022-10-14T08:03:43;3.60;;;3.27;;
18166;SDS011;9208;42.688;23.404;2022-10-14T08:06:10;2.77;;;2.53;;
18166;SDS011;9208;42.688;23.404;2022-10-14T08:08:37;2.70;;;2.50;;
18166;SDS011;9208;42.688;23.404;2022-10-14T08:11:06;2.20;;;2.10;;
18166;SDS011;9208;42.688;23.404;2022-10-14T08:13:37;3.10;;;2.77;;
18166;SDS011;9208;42.688;23.404;2022-10-14T08:16:11;4.07;;;2.60;;
18166;SDS011;9208;42.688;23.404;2022-10-14T08:18:38;3.63;;;2.80;;
18166;SDS011;9208;42.688;23.404;2022-10-14T08:21:05;4.27;;;2.50;;
18166;SDS011;9208;42.688;23.404;2022-10-14T08:23:33;3.67;;;2.43;;
18166;SDS011;9208;42.688;23.404;2022-10-14T08:26:00;3.90;;;2.70;;
18166;SDS011;9208;42.688;23.404;2022-10-14T08:28:26;2.73;;;2.50;;
18166;SDS011;9208;42.688;23.404;2022-10-14T08:30:52;7.90;;;2.80;;
18166;SDS011;9208;42.688;23.404;2022-10-14T08:33:21;5.67;;;3.00;;
18166;SDS011;9208;42.688;23.404;2022-10-14T08:35:47;3.43;;;2.40;;
18166;SDS011;9208;42.688;23.404;2022-10-14T08:38:13;2.43;;;2.23;;
18166;SDS011;9208;42.688;23.404;2022-10-14T08:43:47;2.67;;;1.93;;
18166;SDS011;9208;42.688;23.404;2022-10-14T08:49:07;3.63;;;2.50;;
18166;SDS011;9208;42.688;23.404;2022-10-14T08:51:41;2.77;;;2.57;;
18166;SDS011;9208;42.688;23.404;2022-10-14T08:54:12;3.57;;;2.23;;
18166;SDS011;9208;42.688;23.404;2022-10-14T08:56:43;3.37;;;2.50;;
18166;SDS011;9208;42.688;23.404;2022-10-14T08:59:13;2.60;;;2.40;;
18166;SDS011;9208;42.688;23.404;2022-10-14T09:01:58;2.63;;;2.20;;
18166;SDS011;9208;42.688;23.404;2022-10-14T09:04:28;3.63;;;2.57;;
18166;SDS011;9208;42.688;23.404;2022-10-14T09:07:00;5.63;;;2.60;;
18166;SDS011;9208;42.688;23.404;2022-10-14T09:09:39;4.07;;;2.30;;
18166;SDS011;9208;42.688;23.404;2022-10-14T09:12:15;2.90;;;2.70;;
18166;SDS011;9208;42.688;23.404;2022-10-14T09:14:47;2.80;;;2.60;;
18166;SDS011;9208;42.688;23.404;2022-10-14T09:17:45;3.03;;;2.83;;
18166;SDS011;9208;42.688;23.404;2022-10-14T09:20:30;3.40;;;3.10;;
18166;SDS011;9208;42.688;23.404;2022-10-14T09:25:33;5.27;;;3.90;;
18166;SDS011;9208;42.688;23.404;2022-10-14T09:28:00;3.90;;;3.50;;
18166;SDS011;9208;42.688;23.404;2022-10-14T09:30:32;4.20;;;3.30;;
18166;SDS011;9208;42.688;23.404;2022-10-14T09:33:04;5.00;;;4.13;;
18166;SDS011;9208;42.688;23.404;2022-10-14T09:35:39;4.23;;;3.57;;
18166;SDS011;9208;42.688;23.404;2022-10-14T09:38:06;3.80;;;3.50;;
18166;SDS011;9208;42.688;23.404;2022-10-14T09:40:34;3.37;;;3.07;;
18166;SDS011;9208;42.688;23.404;2022-10-14T09:45:46;6.77;;;3.70;;
18166;SDS011;9208;42.688;23.404;2022-10-14T09:48:18;7.47;;;3.70;;
18166;SDS011;9208;42.688;23.404;2022-10-14T09:50:57;4.17;;;3.47;;
18166;SDS011;9208;42.688;23.404;2022-10-14T09:55:59;3.87;;;3.33;;
18166;SDS011;9208;42.688;23.404;2022-10-14T10:01:21;7.23;;;3.43;;
18166;SDS011;9208;42.688;23.404;2022-10-14T10:03:53;6.67;;;3.73;;
18166;SDS011;9208;42.688;23.404;2022-10-14T10:06:22;4.77;;;4.37;;
18166;SDS011;9208;42.688;23.404;2022-10-14T10:11:31;5.53;;;4.13;;
18166;SDS011;9208;42.688;23.404;2022-10-14T10:14:25;3.90;;;3.50;;
18166;SDS011;9208;42.688;23.404;2022-10-14T10:17:16;4.83;;;3.67;;
18166;SDS011;9208;42.688;23.404;2022-10-14T10:19:47;3.97;;;3.50;;
18166;SDS011;9208;42.688;23.404;2022-10-14T10:25:16;3.60;;;2.90;;
18166;SDS011;9208;42.688;23.404;2022-10-14T10:27:42;4.33;;;3.67;;
18166;SDS011;9208;42.688;23.404;2022-10-14T10:30:17;6.20;;;3.23;;
18166;SDS011;9208;42.688;23.404;2022-10-14T10:46:09;3.37;;;2.57;;
18166;SDS011;9208;42.688;23.404;2022-10-14T11:00:14;2.27;;;2.07;;
18166;SDS011;9208;42.688;23.404;2022-10-14T11:28:50;3.43;;;1.53;;
18166;SDS011;9208;42.688;23.404;2022-10-14T11:31:08;3.60;;;1.30;;
18166;SDS011;9208;42.688;23.404;2022-10-14T11:36:13;4.80;;;1.33;;
18166;SDS011;9208;42.688;23.404;2022-10-14T11:44:54;2.30;;;0.97;;
18166;SDS011;9208;42.688;23.404;2022-10-14T11:47:49;1.57;;;1.00;;
18166;SDS011;9208;42.688;23.404;2022-10-14T11:50:21;2.63;;;0.97;;
18166;SDS011;9208;42.688;23.404;2022-10-14T11:55:24;3.70;;;1.10;;
18166;SDS011;9208;42.688;23.404;2022-10-14T11:58:05;1.10;;;1.00;;
18166;SDS011;9208;42.688;23.404;2022-10-14T12:00:39;1.70;;;1.00;;
18166;SDS011;9208;42.688;23.404;2022-10-14T12:06:10;3.70;;;1.10;;
18166;SDS011;9208;42.688;23.404;2022-10-14T12:08:47;1.43;;;1.33;;
18166;SDS011;9208;42.688;23.404;2022-10-14T12:13:58;1.63;;;1.50;;
18166;SDS011;9208;42.688;23.404;2022-10-14T12:16:38;1.10;;;1.00;;
18166;SDS011;9208;42.688;23.404;2022-10-14T12:19:07;2.50;;;1.10;;
18166;SDS011;9208;42.688;23.404;2022-10-14T12:21:38;1.73;;;1.17;;
18166;SDS011;9208;42.688;23.404;2022-10-14T12:24:23;5.27;;;1.23;;
18166;SDS011;9208;42.688;23.404;2022-10-14T12:26:57;1.17;;;1.10;;
18166;SDS011;9208;42.688;23.404;2022-10-14T12:29:34;2.30;;;1.20;;
18166;SDS011;9208;42.688;23.404;2022-10-14T12:32:16;1.87;;;1.10;;
18166;SDS011;9208;42.688;23.404;2022-10-14T12:34:51;1.10;;;1.00;;
18166;SDS011;9208;42.688;23.404;2022-10-14T12:40:21;3.10;;;1.10;;
18166;SDS011;9208;42.688;23.404;2022-10-14T12:45:19;2.43;;;1.10;;
18166;SDS011;9208;42.688;23.404;2022-10-14T12:47:59;1.57;;;1.10;;
18166;SDS011;9208;42.688;23.404;2022-10-14T12:50:37;1.67;;;1.20;;
18166;SDS011;9208;42.688;23.404;2022-10-14T12:53:06;1.63;;;0.90;;
18166;SDS011;9208;42.688;23.404;2022-10-14T12:55:51;3.17;;;1.10;;
18166;SDS011;9208;42.688;23.404;2022-10-14T13:01:34;3.27;;;1.33;;
18166;SDS011;9208;42.688;23.404;2022-10-14T13:03:54;2.70;;;0.97;;
18166;SDS011;9208;42.688;23.404;2022-10-14T13:06:33;1.93;;;1.27;;
18166;SDS011;9208;42.688;23.404;2022-10-14T13:11:39;3.07;;;1.20;;
18166;SDS011;9208;42.688;23.404;2022-10-14T13:14:29;2.87;;;1.30;;
18166;SDS011;9208;42.688;23.404;2022-10-14T13:17:00;5.73;;;1.60;;
18166;SDS011;9208;42.688;23.404;2022-10-14T13:21:59;2.27;;;1.20;;
18166;SDS011;9208;42.688;23.404;2022-10-14T13:24:29;1.80;;;1.23;;
18166;SDS011;9208;42.688;23.404;2022-10-14T13:32:43;1.50;;;1.07;;
18166;SDS011;9208;42.688;23.404;2022-10-14T13:35:36;1.77;;;0.93;;
18166;SDS011;9208;42.688;23.404;2022-10-14T13:38:12;2.73;;;1.00;;
18166;SDS011;9208;42.688;23.404;2022-10-14T13:40:43;2.33;;;1.13;;
18166;SDS011;9208;42.688;23.404;2022-10-14T13:43:15;1.20;;;0.90;;
18166;SDS011;9208;42.688;23.404;2022-10-14T13:45:51;1.83;;;1.03;;
18166;SDS011;9208;42.688;23.404;2022-10-14T13:48:23;2.37;;;1.10;;
18166;SDS011;9208;42.688;23.404;2022-10-14T13:50:56;2.37;;;1.20;;
18166;SDS011;9208;42.688;23.404;2022-10-14T13:53:34;1.53;;;1.00;;
18166;SDS011;9208;42.688;23.404;2022-10-14T13:56:00;1.20;;;0.97;;
18166;SDS011;9208;42.688;23.404;2022-10-14T13:58:25;1.97;;;1.23;;
18166;SDS011;9208;42.688;23.404;2022-10-14T14:05:52;0.87;;;0.80;;
18166;SDS011;9208;42.688;23.404;2022-10-14T14:08:21;1.17;;;1.00;;
18166;SDS011;9208;42.688;23.404;2022-10-14T14:10:54;0.90;;;0.90;;
18166;SDS011;9208;42.688;23.404;2022-10-14T14:13:29;2.13;;;0.97;;
18166;SDS011;9208;42.688;23.404;2022-10-14T14:16:00;2.70;;;1.00;;
18166;SDS011;9208;42.688;23.404;2022-10-14T14:20:59;2.67;;;0.93;;
18166;SDS011;9208;42.688;23.404;2022-10-14T14:23:25;1.10;;;0.87;;
18166;SDS011;9208;42.688;23.404;2022-10-14T14:25:51;1.63;;;1.00;;
18166;SDS011;9208;42.688;23.404;2022-10-14T14:28:18;3.17;;;1.23;;
18166;SDS011;9208;42.688;23.404;2022-10-14T14:30:47;0.87;;;0.87;;
18166;SDS011;9208;42.688;23.404;2022-10-14T14:33:16;1.23;;;1.10;;
18166;SDS011;9208;42.688;23.404;2022-10-14T14:35:51;1.60;;;1.07;;
18166;SDS011;9208;42.688;23.404;2022-10-14T14:38:23;2.07;;;1.37;;
18166;SDS011;9208;42.688;23.404;2022-10-14T14:43:42;1.83;;;1.57;;
18166;SDS011;9208;42.688;23.404;2022-10-14T14:46:11;2.47;;;1.37;;
18166;SDS011;9208;42.688;23.404;2022-10-14T14:48:43;3.47;;;1.57;;
18166;SDS011;9208;42.688;23.404;2022-10-14T14:51:11;1.87;;;1.40;;
18166;SDS011;9208;42.688;23.404;2022-10-14T14:53:38;2.50;;;2.13;;
18166;SDS011;9208;42.688;23.404;2022-10-14T14:56:05;2.03;;;1.27;;
18166;SDS011;9208;42.688;23.404;2022-10-14T15:01:21;3.27;;;1.20;;
18166;SDS011;9208;42.688;23.404;2022-10-14T15:06:28;1.53;;;1.30;;
18166;SDS011;9208;42.688;23.404;2022-10-14T15:08:55;2.63;;;1.20;;
18166;SDS011;9208;42.688;23.404;2022-10-14T15:11:27;2.00;;;1.30;;
18166;SDS011;9208;42.688;23.404;2022-10-14T15:13:54;1.30;;;1.20;;
18166;SDS011;9208;42.688;23.404;2022-10-14T15:16:30;2.20;;;1.30;;
18166;SDS011;9208;42.688;23.404;2022-10-14T15:21:44;5.17;;;1.60;;
18166;SDS011;9208;42.688;23.404;2022-10-14T15:24:14;4.43;;;1.60;;
18166;SDS011;9208;42.688;23.404;2022-10-14T15:26:40;1.63;;;1.37;;
18166;SDS011;9208;42.688;23.404;2022-10-14T15:29:14;2.10;;;1.30;;
18166;SDS011;9208;42.688;23.404;2022-10-14T15:34:30;1.23;;;1.10;;
18166;SDS011;9208;42.688;23.404;2022-10-14T15:36:56;3.37;;;1.00;;
18166;SDS011;9208;42.688;23.404;2022-10-14T15:39:22;2.70;;;1.10;;
18166;SDS011;9208;42.688;23.404;2022-10-14T15:41:47;2.43;;;1.00;;
18166;SDS011;9208;42.688;23.404;2022-10-14T15:44:13;2.20;;;1.00;;
18166;SDS011;9208;42.688;23.404;2022-10-14T15:46:39;3.60;;;1.23;;
18166;SDS011;9208;42.688;23.404;2022-10-14T15:49:26;1.87;;;1.77;;
18166;SDS011;9208;42.688;23.404;2022-10-14T15:51:54;2.13;;;1.93;;
18166;SDS011;9208;42.688;23.404;2022-10-14T15:54:20;4.33;;;2.00;;
18166;SDS011;9208;42.688;23.404;2022-10-14T15:56:45;3.47;;;2.27;;
18166;SDS011;9208;42.688;23.404;2022-10-14T15:59:12;3.57;;;2.33;;
18166;SDS011;9208;42.688;23.404;2022-10-14T16:01:40;2.80;;;2.10;;
18166;SDS011;9208;42.688;23.404;2022-10-14T16:04:14;3.17;;;2.40;;
18166;SDS011;9208;42.688;23.404;2022-10-14T16:06:43;5.27;;;2.33;;
18166;SDS011;9208;42.688;23.404;2022-10-14T16:09:08;2.40;;;2.20;;
18166;SDS011;9208;42.688;23.404;2022-10-14T16:11:34;2.60;;;2.40;;
18166;SDS011;9208;42.688;23.404;2022-10-14T16:13:59;3.00;;;2.70;;
18166;SDS011;9208;42.688;23.404;2022-10-14T16:16:30;3.50;;;2.40;;
18166;SDS011;9208;42.688;23.404;2022-10-14T16:18:59;2.50;;;2.30;;
18166;SDS011;9208;42.688;23.404;2022-10-14T16:21:29;3.60;;;2.23;;
18166;SDS011;9208;42.688;23.404;2022-10-14T16:23:57;2.77;;;2.50;;
18166;SDS011;9208;42.688;23.404;2022-10-14T16:26:23;3.83;;;2.77;;
18166;SDS011;9208;42.688;23.404;2022-10-14T16:28:50;8.83;;;3.13;;
18166;SDS011;9208;42.688;23.404;2022-10-14T16:31:16;4.57;;;2.60;;
18166;SDS011;9208;42.688;23.404;2022-10-14T16:33:42;3.80;;;2.50;;
18166;SDS011;9208;42.688;23.404;2022-10-14T16:36:08;3.33;;;2.57;;
18166;SDS011;9208;42.688;23.404;2022-10-14T16:38:37;4.17;;;2.67;;
18166;SDS011;9208;42.688;23.404;2022-10-14T16:41:02;3.30;;;2.70;;
18166;SDS011;9208;42.688;23.404;2022-10-14T16:43:28;2.33;;;2.13;;
18166;SDS011;9208;42.688;23.404;2022-10-14T16:45:58;6.03;;;2.83;;
18166;SDS011;9208;42.688;23.404;2022-10-14T16:48:25;3.97;;;2.60;;
18166;SDS011;9208;42.688;23.404;2022-10-14T16:50:52;4.03;;;2.57;;
18166;SDS011;9208;42.688;23.404;2022-10-14T16:53:18;3.30;;;2.53;;
18166;SDS011;9208;42.688;23.404;2022-10-14T16:56:03;5.43;;;2.97;;
18166;SDS011;9208;42.688;23.404;2022-10-14T16:58:50;4.97;;;3.30;;
18166;SDS011;9208;42.688;23.404;2022-10-14T17:01:15;5.57;;;3.13;;
18166;SDS011;9208;42.688;23.404;2022-10-14T17:03:40;3.80;;;3.00;;
18166;SDS011;9208;42.688;23.404;2022-10-14T17:06:06;6.37;;;3.70;;
18166;SDS011;9208;42.688;23.404;2022-10-14T17:08:32;4.30;;;3.60;;
18166;SDS011;9208;42.688;23.404;2022-10-14T17:10:57;6.90;;;3.70;;
18166;SDS011;9208;42.688;23.404;2022-10-14T17:13:23;5.30;;;3.97;;
18166;SDS011;9208;42.688;23.404;2022-10-14T17:15:48;6.30;;;3.97;;
18166;SDS011;9208;42.688;23.404;2022-10-14T17:18:15;7.40;;;4.00;;
18166;SDS011;9208;42.688;23.404;2022-10-14T17:20:41;7.93;;;4.50;;
18166;SDS011;9208;42.688;23.404;2022-10-14T17:23:07;8.63;;;3.90;;
18166;SDS011;9208;42.688;23.404;2022-10-14T17:25:33;4.40;;;4.00;;
18166;SDS011;9208;42.688;23.404;2022-10-14T17:27:59;9.23;;;4.10;;
18166;SDS011;9208;42.688;23.404;2022-10-14T17:30:24;10.30;;;5.23;;
18166;SDS011;9208;42.688;23.404;2022-10-14T17:32:50;6.10;;;4.00;;
18166;SDS011;9208;42.688;23.404;2022-10-14T17:35:15;7.30;;;3.73;;
18166;SDS011;9208;42.688;23.404;2022-10-14T17:37:42;5.80;;;5.03;;
18166;SDS011;9208;42.688;23.404;2022-10-14T17:40:09;6.30;;;4.10;;